Austin, TX (78724)

7:18 AM CDT on July 06, 2015 (GMT -0500)
University Hills | | Change Station
CLOSE
Current Station
Personal Weather Station
Location: Austin, TX
Elevation: 561 ft
Nearby Weather Stations

Elev 561 ft 30.31 °N, 97.68 °W | Updated 28 seconds ago

Overcast
Overcast
76.6 °F
Feels Like 77 °F
N
0.0
Wind Variable Wind from ESE
Gusts 3.0 mph

Today
High -- | Low -- °F
--% Chance of Precip.
Yesterday
High -- | Low -- °F
Precip. -- in
6:34 AM 8:36 PM
Waning Gibbous, 76% visible
Pressure 30.00 in
Visibility 7.0 miles
Clouds Mostly Cloudy 2000 ft
Mostly Cloudy 20000 ft
Heat Index 77 °F
Dew Point 75 °F
Humidity 94%
Rainfall 0.00 in
Snow Depth Not available.
UV 0 out of 12
Pollen 2.50 out of 12
Air Quality Not available.
Flu Activity Not available.
METAR KAUS 061153Z 18009KT 7SM BKN020 BKN200 24/23 A3003 RMK AO2 SLP159 T02440233 10261 20244 53008

More Conditions Fewer Conditions

Pressure 30.00 in
Visibility 7.0 miles
Clouds Mostly Cloudy 2000 ft
Mostly Cloudy 20000 ft
Heat Index 77 °F
Dew Point 75 °F
Humidity 94%
Rainfall 0.00 in
Snow Depth Not available.
UV 0 out of 12
Pollen 2.50 out of 12
Air Quality Not available.
Flu Activity Not available.
METAR KAUS 061153Z 18009KT 7SM BKN020 BKN200 24/23 A3003 RMK AO2 SLP159 T02440233 10261 20244 53008

More Conditions Fewer Conditions

10-Day Weather Forecast

×

Almanac

Astronomy

Jul. 06, 2015 Rise Set
Actual Time
Civil Twilight
Nautical Twilight
Astronomical Twilight
Moon
Length of Visible Light
Length of Day
Tomorrow will be .
, % of the Moon is Illuminated

Today's Extremes

State Highs State Lows

Community

WunderPhotos

Upload Photos

1,835,542 photos uploaded!

WunderBlogs® & News

Nearby

Air Quality

  Air Quality AQ Index Pollutant
Not available.

Snow Depth

Station Depth Elevation

Earthquake Activity

City Distance Mag. Time & Date
Minimum magnitude displayed is 2.5.

Coastal Water Temperatures

Place Temperature

Stations

Nearby Weather Stations

Station Location Temp. Windchill Dew Point Humidity Wind Precip. Elev Updated Type